sensor_id;sensor_type;location;lat;lon;timestamp;pressure;altitude;pressure_sealevel;temperature;humidity
28312;BME280;15572;48.810;9.148;2023-04-09T00:01:04;98820.69;;;5.37;100.00
28312;BME280;15572;48.810;9.148;2023-04-09T00:06:03;98815.31;;;5.37;100.00
28312;BME280;15572;48.810;9.148;2023-04-09T00:11:00;98811.34;;;5.41;100.00
28312;BME280;15572;48.810;9.148;2023-04-09T00:15:56;98819.34;;;5.23;100.00
28312;BME280;15572;48.810;9.148;2023-04-09T00:20:53;98815.38;;;5.27;100.00
28312;BME280;15572;48.810;9.148;2023-04-09T00:25:51;98814.41;;;5.19;100.00
28312;BME280;15572;48.810;9.148;2023-04-09T00:30:47;98809.59;;;5.22;100.00
28312;BME280;15572;48.810;9.148;2023-04-09T00:35:44;98802.22;;;5.34;100.00
28312;BME280;15572;48.810;9.148;2023-04-09T00:40:40;98807.41;;;5.35;100.00
28312;BME280;15572;48.810;9.148;2023-04-09T00:45:38;98802.75;;;5.37;100.00
28312;BME280;15572;48.810;9.148;2023-04-09T00:50:35;98801.00;;;5.46;100.00
28312;BME280;15572;48.810;9.148;2023-04-09T00:55:32;98803.78;;;5.54;100.00
28312;BME280;15572;48.810;9.148;2023-04-09T01:00:29;98804.13;;;5.69;100.00
28312;BME280;15572;48.810;9.148;2023-04-09T01:05:34;98799.66;;;5.77;100.00
28312;BME280;15572;48.810;9.148;2023-04-09T01:10:36;98805.13;;;5.85;100.00
28312;BME280;15572;48.810;9.148;2023-04-09T01:15:38;98793.53;;;5.85;100.00
28312;BME280;15572;48.810;9.148;2023-04-09T01:20:39;98795.13;;;5.87;100.00
28312;BME280;15572;48.810;9.148;2023-04-09T01:25:43;98793.69;;;5.83;100.00
28312;BME280;15572;48.810;9.148;2023-04-09T01:30:47;98795.75;;;5.72;100.00
28312;BME280;15572;48.810;9.148;2023-04-09T01:35:46;98794.56;;;5.57;100.00
28312;BME280;15572;48.810;9.148;2023-04-09T01:40:43;98794.34;;;5.50;100.00
28312;BME280;15572;48.810;9.148;2023-04-09T01:45:41;98793.09;;;5.44;100.00
28312;BME280;15572;48.810;9.148;2023-04-09T01:50:40;98792.66;;;5.49;100.00
28312;BME280;15572;48.810;9.148;2023-04-09T01:55:37;98789.66;;;5.52;100.00
28312;BME280;15572;48.810;9.148;2023-04-09T02:00:37;98785.97;;;5.53;100.00
28312;BME280;15572;48.810;9.148;2023-04-09T02:05:37;98793.03;;;5.54;100.00
28312;BME280;15572;48.810;9.148;2023-04-09T02:10:37;98794.34;;;5.50;100.00
28312;BME280;15572;48.810;9.148;2023-04-09T02:15:35;98797.25;;;5.57;100.00
28312;BME280;15572;48.810;9.148;2023-04-09T02:20:34;98792.13;;;5.63;100.00
28312;BME280;15572;48.810;9.148;2023-04-09T02:25:30;98795.75;;;5.72;100.00
28312;BME280;15572;48.810;9.148;2023-04-09T02:30:28;98791.91;;;5.74;100.00
28312;BME280;15572;48.810;9.148;2023-04-09T02:35:25;98789.69;;;5.70;100.00
28312;BME280;15572;48.810;9.148;2023-04-09T02:40:21;98779.41;;;5.65;100.00
28312;BME280;15572;48.810;9.148;2023-04-09T02:45:18;98781.13;;;5.57;100.00
28312;BME280;15572;48.810;9.148;2023-04-09T02:50:16;98788.13;;;5.49;100.00
28312;BME280;15572;48.810;9.148;2023-04-09T02:55:12;98786.56;;;5.47;100.00
28312;BME280;15572;48.810;9.148;2023-04-09T03:00:10;98791.25;;;5.45;100.00
28312;BME280;15572;48.810;9.148;2023-04-09T03:05:07;98781.66;;;5.42;100.00
28312;BME280;15572;48.810;9.148;2023-04-09T03:10:05;98784.78;;;5.38;100.00
28312;BME280;15572;48.810;9.148;2023-04-09T03:15:02;98780.81;;;5.15;100.00
28312;BME280;15572;48.810;9.148;2023-04-09T03:19:59;98775.94;;;5.00;100.00
28312;BME280;15572;48.810;9.148;2023-04-09T03:24:56;98774.53;;;4.96;100.00
28312;BME280;15572;48.810;9.148;2023-04-09T03:29:55;98781.19;;;4.92;100.00
28312;BME280;15572;48.810;9.148;2023-04-09T03:34:52;98775.13;;;4.90;100.00
28312;BME280;15572;48.810;9.148;2023-04-09T03:39:48;98776.38;;;4.86;100.00
28312;BME280;15572;48.810;9.148;2023-04-09T03:44:45;98775.25;;;4.89;100.00
28312;BME280;15572;48.810;9.148;2023-04-09T03:49:43;98776.91;;;4.99;100.00
28312;BME280;15572;48.810;9.148;2023-04-09T03:54:39;98766.19;;;4.99;100.00
28312;BME280;15572;48.810;9.148;2023-04-09T03:59:37;98771.28;;;4.93;100.00
28312;BME280;15572;48.810;9.148;2023-04-09T04:04:34;98778.34;;;4.94;100.00
28312;BME280;15572;48.810;9.148;2023-04-09T04:09:31;98766.03;;;5.01;100.00
28312;BME280;15572;48.810;9.148;2023-04-09T04:14:28;98770.25;;;5.03;100.00
28312;BME280;15572;48.810;9.148;2023-04-09T04:19:24;98782.53;;;5.06;100.00
28312;BME280;15572;48.810;9.148;2023-04-09T04:24:21;98784.66;;;5.02;100.00
28312;BME280;15572;48.810;9.148;2023-04-09T04:29:19;98798.97;;;4.93;100.00
28312;BME280;15572;48.810;9.148;2023-04-09T04:34:15;98793.06;;;4.90;100.00
28312;BME280;15572;48.810;9.148;2023-04-09T04:39:12;98791.66;;;4.86;100.00
28312;BME280;15572;48.810;9.148;2023-04-09T04:44:08;98793.09;;;4.80;100.00
28312;BME280;15572;48.810;9.148;2023-04-09T04:49:06;98793.66;;;4.84;100.00
28312;BME280;15572;48.810;9.148;2023-04-09T04:54:03;98802.81;;;4.81;100.00
28312;BME280;15572;48.810;9.148;2023-04-09T04:58:59;98803.53;;;4.83;100.00
28312;BME280;15572;48.810;9.148;2023-04-09T05:03:56;98795.00;;;4.97;100.00
28312;BME280;15572;48.810;9.148;2023-04-09T05:08:54;98793.72;;;5.01;100.00
28312;BME280;15572;48.810;9.148;2023-04-09T05:13:52;98795.41;;;5.02;100.00
28312;BME280;15572;48.810;9.148;2023-04-09T05:18:48;98791.13;;;5.09;100.00
28312;BME280;15572;48.810;9.148;2023-04-09T05:23:45;98796.38;;;5.11;100.00
28312;BME280;15572;48.810;9.148;2023-04-09T05:28:43;98806.66;;;5.16;100.00
28312;BME280;15572;48.810;9.148;2023-04-09T05:33:39;98802.13;;;5.16;100.00
28312;BME280;15572;48.810;9.148;2023-04-09T05:38:36;98812.88;;;5.16;100.00
28312;BME280;15572;48.810;9.148;2023-04-09T05:43:32;98809.88;;;5.29;100.00
28312;BME280;15572;48.810;9.148;2023-04-09T05:48:30;98809.75;;;5.48;100.00
28312;BME280;15572;48.810;9.148;2023-04-09T05:53:30;98813.34;;;5.66;100.00
28312;BME280;15572;48.810;9.148;2023-04-09T05:58:27;98810.13;;;5.80;100.00
28312;BME280;15572;48.810;9.148;2023-04-09T06:03:24;98812.88;;;5.98;100.00
28312;BME280;15572;48.810;9.148;2023-04-09T06:08:22;98819.53;;;6.12;100.00
28312;BME280;15572;48.810;9.148;2023-04-09T06:13:18;98818.00;;;6.27;100.00
28312;BME280;15572;48.810;9.148;2023-04-09T06:18:15;98808.22;;;6.44;100.00
28312;BME280;15572;48.810;9.148;2023-04-09T06:23:12;98810.66;;;6.72;100.00
28312;BME280;15572;48.810;9.148;2023-04-09T06:28:10;98800.44;;;6.84;100.00
28312;BME280;15572;48.810;9.148;2023-04-09T06:33:07;98800.56;;;6.74;100.00
28312;BME280;15572;48.810;9.148;2023-04-09T06:38:03;98807.41;;;6.69;100.00
28312;BME280;15572;48.810;9.148;2023-04-09T06:43:01;98811.44;;;6.65;100.00
28312;BME280;15572;48.810;9.148;2023-04-09T06:47:59;98824.41;;;6.69;100.00
28312;BME280;15572;48.810;9.148;2023-04-09T06:52:56;98815.56;;;6.77;100.00
28312;BME280;15572;48.810;9.148;2023-04-09T06:57:52;98814.59;;;6.86;100.00
28312;BME280;15572;48.810;9.148;2023-04-09T07:02:49;98819.22;;;6.94;100.00
28312;BME280;15572;48.810;9.148;2023-04-09T07:07:48;98826.63;;;7.00;100.00
28312;BME280;15572;48.810;9.148;2023-04-09T07:12:45;98820.59;;;7.06;100.00
28312;BME280;15572;48.810;9.148;2023-04-09T07:17:41;98819.97;;;7.12;100.00
28312;BME280;15572;48.810;9.148;2023-04-09T07:22:38;98819.56;;;7.25;100.00
28312;BME280;15572;48.810;9.148;2023-04-09T07:27:36;98820.47;;;7.41;100.00
28312;BME280;15572;48.810;9.148;2023-04-09T07:32:32;98814.94;;;7.51;100.00
28312;BME280;15572;48.810;9.148;2023-04-09T07:37:29;98823.75;;;7.61;100.00
28312;BME280;15572;48.810;9.148;2023-04-09T07:42:25;98826.66;;;7.76;100.00
28312;BME280;15572;48.810;9.148;2023-04-09T07:47:23;98832.78;;;7.94;100.00
28312;BME280;15572;48.810;9.148;2023-04-09T07:52:20;98845.63;;;8.08;100.00
28312;BME280;15572;48.810;9.148;2023-04-09T07:57:16;98847.41;;;8.41;100.00
28312;BME280;15572;48.810;9.148;2023-04-09T08:02:13;98854.31;;;8.60;100.00
28312;BME280;15572;48.810;9.148;2023-04-09T08:07:11;98854.84;;;8.80;93.05
28312;BME280;15572;48.810;9.148;2023-04-09T08:12:08;98852.88;;;9.37;89.14
28312;BME280;15572;48.810;9.148;2023-04-09T08:17:05;98848.16;;;9.78;80.66
28312;BME280;15572;48.810;9.148;2023-04-09T08:22:01;98847.22;;;9.63;81.25
28312;BME280;15572;48.810;9.148;2023-04-09T08:26:59;98849.81;;;9.40;79.37
28312;BME280;15572;48.810;9.148;2023-04-09T08:31:57;98847.66;;;9.36;79.92
28312;BME280;15572;48.810;9.148;2023-04-09T08:36:54;98855.22;;;9.40;83.03
28312;BME280;15572;48.810;9.148;2023-04-09T08:41:51;98847.25;;;9.55;82.96
28312;BME280;15572;48.810;9.148;2023-04-09T08:46:49;98850.28;;;9.60;82.22
28312;BME280;15572;48.810;9.148;2023-04-09T08:51:47;98852.66;;;9.55;79.98
28312;BME280;15572;48.810;9.148;2023-04-09T08:56:44;98859.78;;;9.56;81.42
28312;BME280;15572;48.810;9.148;2023-04-09T09:01:40;98862.59;;;9.70;81.19
28312;BME280;15572;48.810;9.148;2023-04-09T09:06:39;98864.06;;;9.81;79.00
28312;BME280;15572;48.810;9.148;2023-04-09T09:11:37;98865.31;;;10.01;74.38
28312;BME280;15572;48.810;9.148;2023-04-09T09:16:35;98861.75;;;10.40;73.79
28312;BME280;15572;48.810;9.148;2023-04-09T09:21:39;98868.31;;;10.68;69.00
28312;BME280;15572;48.810;9.148;2023-04-09T09:26:37;98859.44;;;10.74;64.64
28312;BME280;15572;48.810;9.148;2023-04-09T09:31:44;98857.78;;;11.11;64.41
28312;BME280;15572;48.810;9.148;2023-04-09T09:36:43;98871.13;;;11.12;66.68
28312;BME280;15572;48.810;9.148;2023-04-09T09:41:40;98873.72;;;11.43;66.72
28312;BME280;15572;48.810;9.148;2023-04-09T09:46:38;98855.31;;;11.68;66.48
28312;BME280;15572;48.810;9.148;2023-04-09T09:51:36;98862.88;;;12.02;65.41
28312;BME280;15572;48.810;9.148;2023-04-09T09:56:37;98863.56;;;12.25;62.53
28312;BME280;15572;48.810;9.148;2023-04-09T10:01:34;98862.84;;;12.52;62.80
28312;BME280;15572;48.810;9.148;2023-04-09T10:06:31;98864.69;;;12.94;61.83
28312;BME280;15572;48.810;9.148;2023-04-09T10:11:29;98863.31;;;13.26;60.76
28312;BME280;15572;48.810;9.148;2023-04-09T10:16:28;98864.28;;;13.40;53.86
28312;BME280;15572;48.810;9.148;2023-04-09T10:21:31;98855.09;;;13.47;51.66
28312;BME280;15572;48.810;9.148;2023-04-09T10:26:32;98858.84;;;13.46;50.45
28312;BME280;15572;48.810;9.148;2023-04-09T10:31:44;98847.91;;;13.33;49.88
28312;BME280;15572;48.810;9.148;2023-04-09T10:36:42;98852.69;;;13.59;50.46
28312;BME280;15572;48.810;9.148;2023-04-09T10:41:39;98848.59;;;13.76;48.93
28312;BME280;15572;48.810;9.148;2023-04-09T10:46:38;98846.03;;;13.68;48.71
28312;BME280;15572;48.810;9.148;2023-04-09T10:51:37;98838.00;;;13.95;46.72
28312;BME280;15572;48.810;9.148;2023-04-09T10:56:33;98836.09;;;14.43;46.67
28312;BME280;15572;48.810;9.148;2023-04-09T11:01:30;98837.25;;;15.27;43.37
28312;BME280;15572;48.810;9.148;2023-04-09T11:06:28;98842.72;;;16.18;41.75
28312;BME280;15572;48.810;9.148;2023-04-09T11:11:25;98814.31;;;16.63;40.16
28312;BME280;15572;48.810;9.148;2023-04-09T11:16:22;98836.97;;;17.02;39.98
28312;BME280;15572;48.810;9.148;2023-04-09T11:21:18;98824.44;;;17.37;39.33
28312;BME280;15572;48.810;9.148;2023-04-09T11:26:16;98815.72;;;17.72;37.70
28312;BME280;15572;48.810;9.148;2023-04-09T11:31:18;98818.03;;;18.23;36.64
28312;BME280;15572;48.810;9.148;2023-04-09T11:36:14;98815.50;;;18.58;35.15
28312;BME280;15572;48.810;9.148;2023-04-09T11:41:12;98815.81;;;18.79;34.43
28312;BME280;15572;48.810;9.148;2023-04-09T11:46:09;98802.50;;;18.65;33.10
28312;BME280;15572;48.810;9.148;2023-04-09T11:51:06;98813.44;;;18.83;33.16
28312;BME280;15572;48.810;9.148;2023-04-09T11:56:03;98811.13;;;18.68;33.86
28312;BME280;15572;48.810;9.148;2023-04-09T12:01:00;98803.19;;;18.30;33.84
28312;BME280;15572;48.810;9.148;2023-04-09T12:06:00;98810.19;;;17.78;35.29
28312;BME280;15572;48.810;9.148;2023-04-09T12:11:06;98806.09;;;18.35;34.31
28312;BME280;15572;48.810;9.148;2023-04-09T12:16:04;98794.41;;;19.11;33.39
28312;BME280;15572;48.810;9.148;2023-04-09T12:21:02;98803.97;;;19.55;33.25
28312;BME280;15572;48.810;9.148;2023-04-09T12:25:59;98792.03;;;19.61;32.63
28312;BME280;15572;48.810;9.148;2023-04-09T12:30:56;98804.44;;;19.17;33.02
28312;BME280;15572;48.810;9.148;2023-04-09T12:35:53;98794.75;;;19.85;32.14
28312;BME280;15572;48.810;9.148;2023-04-09T12:40:51;98790.25;;;20.18;30.73
28312;BME280;15572;48.810;9.148;2023-04-09T12:45:48;98787.72;;;20.57;30.52
28312;BME280;15572;48.810;9.148;2023-04-09T12:50:44;98776.22;;;20.88;30.48
28312;BME280;15572;48.810;9.148;2023-04-09T12:55:41;98768.97;;;19.74;31.46
28312;BME280;15572;48.810;9.148;2023-04-09T13:00:39;98767.09;;;18.03;33.23
28312;BME280;15572;48.810;9.148;2023-04-09T13:05:35;98762.34;;;18.59;32.95
28312;BME280;15572;48.810;9.148;2023-04-09T13:10:32;98759.25;;;18.67;32.91
28312;BME280;15572;48.810;9.148;2023-04-09T13:15:28;98752.53;;;19.27;31.88
28312;BME280;15572;48.810;9.148;2023-04-09T13:20:27;98744.25;;;20.14;31.23
28312;BME280;15572;48.810;9.148;2023-04-09T13:25:23;98745.94;;;20.72;30.71
28312;BME280;15572;48.810;9.148;2023-04-09T13:30:20;98731.09;;;21.23;30.36
28312;BME280;15572;48.810;9.148;2023-04-09T13:35:17;98724.44;;;21.19;30.08
28312;BME280;15572;48.810;9.148;2023-04-09T13:40:15;98726.22;;;20.18;30.26
28312;BME280;15572;48.810;9.148;2023-04-09T13:45:11;98709.69;;;19.50;31.19
28312;BME280;15572;48.810;9.148;2023-04-09T13:50:09;98710.75;;;19.14;31.64
28312;BME280;15572;48.810;9.148;2023-04-09T13:55:08;98702.16;;;18.87;31.87
28312;BME280;15572;48.810;9.148;2023-04-09T14:00:07;98708.16;;;18.96;31.51
28312;BME280;15572;48.810;9.148;2023-04-09T14:05:04;98694.53;;;18.89;32.11
28312;BME280;15572;48.810;9.148;2023-04-09T14:10:01;98683.72;;;18.41;32.06
28312;BME280;15572;48.810;9.148;2023-04-09T14:14:57;98677.19;;;18.54;32.74
28312;BME280;15572;48.810;9.148;2023-04-09T14:19:55;98669.84;;;18.66;32.68
28312;BME280;15572;48.810;9.148;2023-04-09T14:24:53;98672.41;;;18.37;31.97
28312;BME280;15572;48.810;9.148;2023-04-09T14:29:49;98673.38;;;18.13;32.35
28312;BME280;15572;48.810;9.148;2023-04-09T14:34:46;98665.81;;;18.27;33.00
28312;BME280;15572;48.810;9.148;2023-04-09T14:39:44;98676.41;;;17.93;33.44
28312;BME280;15572;48.810;9.148;2023-04-09T14:44:40;98674.25;;;17.65;34.52
28312;BME280;15572;48.810;9.148;2023-04-09T14:49:37;98678.69;;;17.66;34.57
28312;BME280;15572;48.810;9.148;2023-04-09T14:54:33;98676.97;;;16.93;35.03
28312;BME280;15572;48.810;9.148;2023-04-09T14:59:33;98686.88;;;16.37;34.87
28312;BME280;15572;48.810;9.148;2023-04-09T15:04:30;98688.00;;;15.92;35.89
28312;BME280;15572;48.810;9.148;2023-04-09T15:09:26;98675.41;;;15.53;36.97
28312;BME280;15572;48.810;9.148;2023-04-09T15:14:27;98680.31;;;15.18;38.18
28312;BME280;15572;48.810;9.148;2023-04-09T15:19:25;98677.38;;;15.33;38.21
28312;BME280;15572;48.810;9.148;2023-04-09T15:24:21;98676.44;;;15.58;38.26
28312;BME280;15572;48.810;9.148;2023-04-09T15:29:17;98672.28;;;15.43;38.68
28312;BME280;15572;48.810;9.148;2023-04-09T15:34:14;98665.91;;;15.11;38.67
28312;BME280;15572;48.810;9.148;2023-04-09T15:39:12;98672.00;;;14.80;39.28
28312;BME280;15572;48.810;9.148;2023-04-09T15:44:09;98666.13;;;15.61;38.00
28312;BME280;15572;48.810;9.148;2023-04-09T15:49:06;98667.03;;;17.35;35.33
28312;BME280;15572;48.810;9.148;2023-04-09T15:54:02;98658.44;;;18.39;33.35
28312;BME280;15572;48.810;9.148;2023-04-09T15:59:01;98655.97;;;18.37;33.39
28312;BME280;15572;48.810;9.148;2023-04-09T16:03:59;98657.06;;;18.60;33.17
28312;BME280;15572;48.810;9.148;2023-04-09T16:08:55;98664.50;;;17.15;35.01
28312;BME280;15572;48.810;9.148;2023-04-09T16:13:52;98661.09;;;17.38;34.85
28312;BME280;15572;48.810;9.148;2023-04-09T16:18:51;98653.91;;;17.25;35.28
28312;BME280;15572;48.810;9.148;2023-04-09T16:23:48;98657.41;;;17.14;35.51
28312;BME280;15572;48.810;9.148;2023-04-09T16:28:44;98653.31;;;16.80;35.86
28312;BME280;15572;48.810;9.148;2023-04-09T16:33:41;98668.75;;;16.43;36.30
28312;BME280;15572;48.810;9.148;2023-04-09T16:38:38;98663.19;;;16.00;36.31
28312;BME280;15572;48.810;9.148;2023-04-09T16:43:35;98660.91;;;15.59;37.23
28312;BME280;15572;48.810;9.148;2023-04-09T16:48:32;98660.16;;;15.26;37.48
28312;BME280;15572;48.810;9.148;2023-04-09T16:53:30;98665.22;;;15.22;37.79
28312;BME280;15572;48.810;9.148;2023-04-09T16:58:28;98662.06;;;15.18;38.10
28312;BME280;15572;48.810;9.148;2023-04-09T17:03:24;98667.16;;;15.08;38.34
28312;BME280;15572;48.810;9.148;2023-04-09T17:08:21;98658.56;;;15.05;38.36
28312;BME280;15572;48.810;9.148;2023-04-09T17:13:18;98667.81;;;14.91;38.47
28312;BME280;15572;48.810;9.148;2023-04-09T17:18:16;98667.41;;;14.81;38.51
28312;BME280;15572;48.810;9.148;2023-04-09T17:23:12;98663.22;;;14.78;38.91
28312;BME280;15572;48.810;9.148;2023-04-09T17:28:09;98659.22;;;14.87;38.97
28312;BME280;15572;48.810;9.148;2023-04-09T17:33:06;98661.94;;;14.94;38.96
28312;BME280;15572;48.810;9.148;2023-04-09T17:38:04;98662.19;;;14.72;39.09
28312;BME280;15572;48.810;9.148;2023-04-09T17:43:00;98666.19;;;14.50;39.70
28312;BME280;15572;48.810;9.148;2023-04-09T17:47:56;98664.84;;;14.00;40.20
28312;BME280;15572;48.810;9.148;2023-04-09T17:52:54;98674.16;;;13.52;41.15
28312;BME280;15572;48.810;9.148;2023-04-09T17:57:52;98675.00;;;13.11;42.08
28312;BME280;15572;48.810;9.148;2023-04-09T18:02:50;98683.97;;;12.77;42.67
28312;BME280;15572;48.810;9.148;2023-04-09T18:07:47;98686.50;;;12.51;43.30
28312;BME280;15572;48.810;9.148;2023-04-09T18:12:44;98694.88;;;12.28;43.80
28312;BME280;15572;48.810;9.148;2023-04-09T18:17:41;98702.19;;;12.06;44.36
28312;BME280;15572;48.810;9.148;2023-04-09T18:22:38;98709.75;;;11.90;44.70
28312;BME280;15572;48.810;9.148;2023-04-09T18:27:35;98712.50;;;11.75;45.17
28312;BME280;15572;48.810;9.148;2023-04-09T18:32:32;98717.56;;;11.63;45.58
28312;BME280;15572;48.810;9.148;2023-04-09T18:37:29;98731.59;;;11.52;46.07
28312;BME280;15572;48.810;9.148;2023-04-09T18:42:28;98742.09;;;11.40;46.34
28312;BME280;15572;48.810;9.148;2023-04-09T18:47:25;98752.47;;;11.37;46.89
28312;BME280;15572;48.810;9.148;2023-04-09T18:52:21;98746.00;;;11.23;47.05
28312;BME280;15572;48.810;9.148;2023-04-09T18:57:19;98740.44;;;11.10;47.50
28312;BME280;15572;48.810;9.148;2023-04-09T19:02:15;98743.59;;;10.99;48.03
28312;BME280;15572;48.810;9.148;2023-04-09T19:07:12;98754.22;;;10.86;48.33
28312;BME280;15572;48.810;9.148;2023-04-09T19:12:09;98757.88;;;10.78;48.61
28312;BME280;15572;48.810;9.148;2023-04-09T19:17:06;98751.66;;;10.70;48.84
28312;BME280;15572;48.810;9.148;2023-04-09T19:22:03;98752.78;;;10.61;49.42
28312;BME280;15572;48.810;9.148;2023-04-09T19:27:00;98756.59;;;10.51;49.93
28312;BME280;15572;48.810;9.148;2023-04-09T19:32:02;98756.66;;;10.43;50.60
28312;BME280;15572;48.810;9.148;2023-04-09T19:37:00;98750.31;;;10.36;50.76
28312;BME280;15572;48.810;9.148;2023-04-09T19:41:56;98760.78;;;10.31;51.13
28312;BME280;15572;48.810;9.148;2023-04-09T19:46:53;98765.44;;;10.23;51.45
28312;BME280;15572;48.810;9.148;2023-04-09T19:51:49;98763.97;;;10.12;52.35
28312;BME280;15572;48.810;9.148;2023-04-09T19:56:47;98767.94;;;10.01;52.57
28312;BME280;15572;48.810;9.148;2023-04-09T20:01:44;98770.56;;;9.87;53.09
28312;BME280;15572;48.810;9.148;2023-04-09T20:06:42;98771.13;;;9.74;53.76
28312;BME280;15572;48.810;9.148;2023-04-09T20:11:38;98773.75;;;9.59;54.24
28312;BME280;15572;48.810;9.148;2023-04-09T20:16:37;98767.22;;;9.46;54.62
28312;BME280;15572;48.810;9.148;2023-04-09T20:21:34;98771.50;;;9.32;55.45
28312;BME280;15572;48.810;9.148;2023-04-09T20:26:31;98771.72;;;9.22;56.09
28312;BME280;15572;48.810;9.148;2023-04-09T20:31:28;98771.03;;;9.20;57.85
28312;BME280;15572;48.810;9.148;2023-04-09T20:36:26;98771.91;;;9.13;58.85
28312;BME280;15572;48.810;9.148;2023-04-09T20:41:22;98771.75;;;8.98;60.28
28312;BME280;15572;48.810;9.148;2023-04-09T20:46:19;98783.47;;;8.74;60.94
28312;BME280;15572;48.810;9.148;2023-04-09T20:51:16;98791.25;;;8.53;62.19
28312;BME280;15572;48.810;9.148;2023-04-09T20:56:14;98782.63;;;8.33;62.59
28312;BME280;15572;48.810;9.148;2023-04-09T21:01:11;98774.88;;;8.22;63.48
28312;BME280;15572;48.810;9.148;2023-04-09T21:06:07;98769.09;;;8.09;63.79
28312;BME280;15572;48.810;9.148;2023-04-09T21:11:04;98761.84;;;8.01;64.03
28312;BME280;15572;48.810;9.148;2023-04-09T21:16:02;98749.69;;;7.97;64.40
28312;BME280;15572;48.810;9.148;2023-04-09T21:20:58;98756.41;;;7.85;65.01
28312;BME280;15572;48.810;9.148;2023-04-09T21:25:56;98751.72;;;7.79;66.15
28312;BME280;15572;48.810;9.148;2023-04-09T21:30:52;98754.38;;;7.71;66.78
28312;BME280;15572;48.810;9.148;2023-04-09T21:35:51;98749.00;;;7.63;67.69
28312;BME280;15572;48.810;9.148;2023-04-09T21:40:48;98758.88;;;7.46;68.64
28312;BME280;15572;48.810;9.148;2023-04-09T21:45:44;98752.63;;;7.46;68.94
28312;BME280;15572;48.810;9.148;2023-04-09T21:50:41;98756.66;;;7.42;69.07
28312;BME280;15572;48.810;9.148;2023-04-09T21:55:39;98757.19;;;7.45;69.10
28312;BME280;15572;48.810;9.148;2023-04-09T22:00:35;98753.28;;;7.40;69.93
28312;BME280;15572;48.810;9.148;2023-04-09T22:05:32;98751.94;;;7.36;70.90
28312;BME280;15572;48.810;9.148;2023-04-09T22:10:29;98755.13;;;7.31;71.72
28312;BME280;15572;48.810;9.148;2023-04-09T22:15:27;98755.56;;;7.27;72.09
28312;BME280;15572;48.810;9.148;2023-04-09T22:20:24;98762.50;;;7.29;72.69
28312;BME280;15572;48.810;9.148;2023-04-09T22:25:21;98750.72;;;7.30;72.25
28312;BME280;15572;48.810;9.148;2023-04-09T22:30:17;98757.41;;;7.18;72.52
28312;BME280;15572;48.810;9.148;2023-04-09T22:35:16;98745.56;;;7.11;72.81
28312;BME280;15572;48.810;9.148;2023-04-09T22:40:13;98744.28;;;7.15;72.95
28312;BME280;15572;48.810;9.148;2023-04-09T22:45:10;98728.59;;;7.10;73.25
28312;BME280;15572;48.810;9.148;2023-04-09T22:50:07;98729.69;;;7.00;73.74
28312;BME280;15572;48.810;9.148;2023-04-09T22:55:07;98720.72;;;6.83;74.56
28312;BME280;15572;48.810;9.148;2023-04-09T23:00:05;98712.81;;;6.82;75.21
28312;BME280;15572;48.810;9.148;2023-04-09T23:05:02;98727.97;;;6.83;75.33
28312;BME280;15572;48.810;9.148;2023-04-09T23:09:59;98723.22;;;6.76;75.67
28312;BME280;15572;48.810;9.148;2023-04-09T23:14:57;98739.09;;;6.62;76.55
28312;BME280;15572;48.810;9.148;2023-04-09T23:19:53;98736.34;;;6.54;77.88
28312;BME280;15572;48.810;9.148;2023-04-09T23:24:50;98738.41;;;6.34;78.41
28312;BME280;15572;48.810;9.148;2023-04-09T23:29:46;98734.59;;;6.19;79.46
28312;BME280;15572;48.810;9.148;2023-04-09T23:34:44;98732.16;;;6.08;80.55
28312;BME280;15572;48.810;9.148;2023-04-09T23:39:41;98728.22;;;6.02;81.13
28312;BME280;15572;48.810;9.148;2023-04-09T23:44:37;98741.75;;;5.93;82.52
28312;BME280;15572;48.810;9.148;2023-04-09T23:49:34;98734.88;;;5.80;83.74
28312;BME280;15572;48.810;9.148;2023-04-09T23:54:31;98732.75;;;5.66;83.20
28312;BME280;15572;48.810;9.148;2023-04-09T23:59:28;98715.63;;;5.49;84.10
